sensor_id;sensor_type;location;lat;lon;timestamp;temperature;humidity
37974;DHT22;23796;51.458;7.000;2023-07-29T00:01:46;19.20;99.90
37974;DHT22;23796;51.458;7.000;2023-07-29T00:04:12;19.10;99.90
37974;DHT22;23796;51.458;7.000;2023-07-29T00:06:37;19.10;99.90
37974;DHT22;23796;51.458;7.000;2023-07-29T00:09:03;19.10;99.90
37974;DHT22;23796;51.458;7.000;2023-07-29T00:11:28;19.10;99.90
37974;DHT22;23796;51.458;7.000;2023-07-29T00:13:54;19.10;99.90
37974;DHT22;23796;51.458;7.000;2023-07-29T00:16:20;19.10;99.90
37974;DHT22;23796;51.458;7.000;2023-07-29T00:18:51;19.10;99.90
37974;DHT22;23796;51.458;7.000;2023-07-29T00:21:17;19.10;99.90
37974;DHT22;23796;51.458;7.000;2023-07-29T00:23:42;19.10;99.90
37974;DHT22;23796;51.458;7.000;2023-07-29T00:26:08;19.10;99.90
37974;DHT22;23796;51.458;7.000;2023-07-29T00:28:34;19.10;99.90
37974;DHT22;23796;51.458;7.000;2023-07-29T00:31:02;19.10;99.90
37974;DHT22;23796;51.458;7.000;2023-07-29T00:33:28;19.10;99.90
37974;DHT22;23796;51.458;7.000;2023-07-29T00:35:53;19.10;99.90
37974;DHT22;23796;51.458;7.000;2023-07-29T00:38:21;19.10;99.90
37974;DHT22;23796;51.458;7.000;2023-07-29T00:40:47;19.10;99.90
37974;DHT22;23796;51.458;7.000;2023-07-29T00:43:13;19.10;99.90
37974;DHT22;23796;51.458;7.000;2023-07-29T00:45:38;19.00;99.90
37974;DHT22;23796;51.458;7.000;2023-07-29T00:48:04;19.00;99.90
37974;DHT22;23796;51.458;7.000;2023-07-29T00:50:31;19.00;99.90
37974;DHT22;23796;51.458;7.000;2023-07-29T00:53:01;19.00;99.90
37974;DHT22;23796;51.458;7.000;2023-07-29T00:55:26;19.00;99.90
37974;DHT22;23796;51.458;7.000;2023-07-29T00:57:54;19.10;99.90
37974;DHT22;23796;51.458;7.000;2023-07-29T01:00:20;19.10;99.90
37974;DHT22;23796;51.458;7.000;2023-07-29T01:02:46;19.10;99.90
37974;DHT22;23796;51.458;7.000;2023-07-29T01:05:14;19.10;99.90
37974;DHT22;23796;51.458;7.000;2023-07-29T01:10:46;19.00;99.90
37974;DHT22;23796;51.458;7.000;2023-07-29T01:16:10;19.00;99.90
37974;DHT22;23796;51.458;7.000;2023-07-29T01:18:36;19.00;99.90
37974;DHT22;23796;51.458;7.000;2023-07-29T01:21:07;19.10;99.90
37974;DHT22;23796;51.458;7.000;2023-07-29T01:23:37;19.20;99.90
37974;DHT22;23796;51.458;7.000;2023-07-29T01:26:03;19.20;99.90
37974;DHT22;23796;51.458;7.000;2023-07-29T01:28:29;19.20;99.90
37974;DHT22;23796;51.458;7.000;2023-07-29T01:31:07;19.30;99.90
37974;DHT22;23796;51.458;7.000;2023-07-29T01:33:40;19.40;99.90
37974;DHT22;23796;51.458;7.000;2023-07-29T01:36:18;19.50;99.90
37974;DHT22;23796;51.458;7.000;2023-07-29T01:38:47;19.50;99.90
37974;DHT22;23796;51.458;7.000;2023-07-29T01:41:14;19.50;99.90
37974;DHT22;23796;51.458;7.000;2023-07-29T01:43:41;19.50;99.90
37974;DHT22;23796;51.458;7.000;2023-07-29T01:46:13;19.50;99.90
37974;DHT22;23796;51.458;7.000;2023-07-29T01:48:41;19.50;99.90
37974;DHT22;23796;51.458;7.000;2023-07-29T01:51:07;19.60;99.90
37974;DHT22;23796;51.458;7.000;2023-07-29T01:53:33;19.60;99.90
37974;DHT22;23796;51.458;7.000;2023-07-29T01:55:59;19.60;99.90
37974;DHT22;23796;51.458;7.000;2023-07-29T01:58:25;19.60;99.90
37974;DHT22;23796;51.458;7.000;2023-07-29T02:00:53;19.60;99.90
37974;DHT22;23796;51.458;7.000;2023-07-29T02:03:18;19.60;99.90
37974;DHT22;23796;51.458;7.000;2023-07-29T02:05:44;19.60;99.90
37974;DHT22;23796;51.458;7.000;2023-07-29T02:08:10;19.60;99.90
37974;DHT22;23796;51.458;7.000;2023-07-29T02:10:36;19.70;99.90
37974;DHT22;23796;51.458;7.000;2023-07-29T02:13:03;19.70;99.90
37974;DHT22;23796;51.458;7.000;2023-07-29T02:15:28;19.70;99.90
37974;DHT22;23796;51.458;7.000;2023-07-29T02:17:54;19.60;99.90
37974;DHT22;23796;51.458;7.000;2023-07-29T02:20:20;19.70;99.90
37974;DHT22;23796;51.458;7.000;2023-07-29T02:22:45;19.70;99.90
37974;DHT22;23796;51.458;7.000;2023-07-29T02:25:11;19.70;99.90
37974;DHT22;23796;51.458;7.000;2023-07-29T02:27:37;19.70;99.90
37974;DHT22;23796;51.458;7.000;2023-07-29T02:30:03;19.70;99.90
37974;DHT22;23796;51.458;7.000;2023-07-29T02:32:28;19.70;99.90
37974;DHT22;23796;51.458;7.000;2023-07-29T02:34:54;19.70;99.90
37974;DHT22;23796;51.458;7.000;2023-07-29T02:37:20;19.70;99.90
37974;DHT22;23796;51.458;7.000;2023-07-29T02:39:45;19.70;99.90
37974;DHT22;23796;51.458;7.000;2023-07-29T02:42:11;19.70;99.90
37974;DHT22;23796;51.458;7.000;2023-07-29T02:44:40;19.70;99.90
37974;DHT22;23796;51.458;7.000;2023-07-29T02:47:10;19.70;99.90
37974;DHT22;23796;51.458;7.000;2023-07-29T02:49:38;19.70;99.90
37974;DHT22;23796;51.458;7.000;2023-07-29T02:52:03;19.70;99.90
37974;DHT22;23796;51.458;7.000;2023-07-29T02:54:29;19.70;99.90
37974;DHT22;23796;51.458;7.000;2023-07-29T02:56:55;19.80;99.90
37974;DHT22;23796;51.458;7.000;2023-07-29T02:59:20;19.70;99.90
37974;DHT22;23796;51.458;7.000;2023-07-29T03:01:46;19.80;99.90
37974;DHT22;23796;51.458;7.000;2023-07-29T03:04:12;19.80;99.90
37974;DHT22;23796;51.458;7.000;2023-07-29T03:06:40;19.80;99.90
37974;DHT22;23796;51.458;7.000;2023-07-29T03:09:06;19.90;99.90
37974;DHT22;23796;51.458;7.000;2023-07-29T03:11:31;19.90;99.90
37974;DHT22;23796;51.458;7.000;2023-07-29T03:13:57;19.90;99.90
37974;DHT22;23796;51.458;7.000;2023-07-29T03:16:23;19.90;99.90
37974;DHT22;23796;51.458;7.000;2023-07-29T03:18:49;19.90;99.90
37974;DHT22;23796;51.458;7.000;2023-07-29T03:21:15;19.90;99.90
37974;DHT22;23796;51.458;7.000;2023-07-29T03:23:40;19.80;99.90
37974;DHT22;23796;51.458;7.000;2023-07-29T03:26:06;19.80;99.90
37974;DHT22;23796;51.458;7.000;2023-07-29T03:28:37;19.80;99.90
37974;DHT22;23796;51.458;7.000;2023-07-29T03:31:05;19.80;99.90
37974;DHT22;23796;51.458;7.000;2023-07-29T03:33:31;19.80;99.90
37974;DHT22;23796;51.458;7.000;2023-07-29T03:35:56;19.80;99.90
37974;DHT22;23796;51.458;7.000;2023-07-29T03:38:22;19.80;99.90
37974;DHT22;23796;51.458;7.000;2023-07-29T03:40:48;19.80;99.90
37974;DHT22;23796;51.458;7.000;2023-07-29T03:43:16;19.80;99.90
37974;DHT22;23796;51.458;7.000;2023-07-29T03:45:41;19.80;99.90
37974;DHT22;23796;51.458;7.000;2023-07-29T03:48:07;19.70;99.90
37974;DHT22;23796;51.458;7.000;2023-07-29T03:50:36;19.70;99.90
37974;DHT22;23796;51.458;7.000;2023-07-29T03:53:04;19.70;99.90
37974;DHT22;23796;51.458;7.000;2023-07-29T03:55:31;19.60;99.90
37974;DHT22;23796;51.458;7.000;2023-07-29T03:57:57;19.60;99.90
37974;DHT22;23796;51.458;7.000;2023-07-29T04:00:24;19.60;99.90
37974;DHT22;23796;51.458;7.000;2023-07-29T04:02:49;19.50;99.90
37974;DHT22;23796;51.458;7.000;2023-07-29T04:05:16;19.60;99.90
37974;DHT22;23796;51.458;7.000;2023-07-29T04:07:43;19.60;99.90
37974;DHT22;23796;51.458;7.000;2023-07-29T04:10:10;19.60;99.90
37974;DHT22;23796;51.458;7.000;2023-07-29T04:12:36;19.60;99.90
37974;DHT22;23796;51.458;7.000;2023-07-29T04:15:01;19.60;99.90
37974;DHT22;23796;51.458;7.000;2023-07-29T04:17:27;19.50;99.90
37974;DHT22;23796;51.458;7.000;2023-07-29T04:19:53;19.50;99.90
37974;DHT22;23796;51.458;7.000;2023-07-29T04:22:18;19.40;99.90
37974;DHT22;23796;51.458;7.000;2023-07-29T04:24:44;19.40;99.90
37974;DHT22;23796;51.458;7.000;2023-07-29T04:27:10;19.30;99.90
37974;DHT22;23796;51.458;7.000;2023-07-29T04:29:35;19.30;99.90
37974;DHT22;23796;51.458;7.000;2023-07-29T04:32:02;19.30;99.90
37974;DHT22;23796;51.458;7.000;2023-07-29T04:34:28;19.30;99.90
37974;DHT22;23796;51.458;7.000;2023-07-29T04:36:54;19.20;99.90
37974;DHT22;23796;51.458;7.000;2023-07-29T04:39:19;19.20;99.90
37974;DHT22;23796;51.458;7.000;2023-07-29T04:41:45;19.20;99.90
37974;DHT22;23796;51.458;7.000;2023-07-29T04:44:11;19.20;99.90
37974;DHT22;23796;51.458;7.000;2023-07-29T04:47:55;19.30;99.90
37974;DHT22;23796;51.458;7.000;2023-07-29T04:50:21;19.20;99.90
37974;DHT22;23796;51.458;7.000;2023-07-29T04:52:47;19.10;99.90
37974;DHT22;23796;51.458;7.000;2023-07-29T04:55:12;19.10;99.90
37974;DHT22;23796;51.458;7.000;2023-07-29T04:57:38;19.20;99.90
37974;DHT22;23796;51.458;7.000;2023-07-29T05:00:06;19.20;99.90
37974;DHT22;23796;51.458;7.000;2023-07-29T05:02:31;19.30;99.90
37974;DHT22;23796;51.458;7.000;2023-07-29T05:04:57;19.30;99.90
37974;DHT22;23796;51.458;7.000;2023-07-29T05:07:22;19.40;99.90
37974;DHT22;23796;51.458;7.000;2023-07-29T05:09:48;19.40;99.90
37974;DHT22;23796;51.458;7.000;2023-07-29T05:12:14;19.40;99.90
37974;DHT22;23796;51.458;7.000;2023-07-29T05:14:39;19.40;99.90
37974;DHT22;23796;51.458;7.000;2023-07-29T05:17:05;19.50;99.90
37974;DHT22;23796;51.458;7.000;2023-07-29T05:19:31;19.50;99.90
37974;DHT22;23796;51.458;7.000;2023-07-29T05:21:57;19.50;99.90
37974;DHT22;23796;51.458;7.000;2023-07-29T05:24:23;19.50;99.90
37974;DHT22;23796;51.458;7.000;2023-07-29T05:26:49;19.50;99.90
37974;DHT22;23796;51.458;7.000;2023-07-29T05:29:14;19.50;99.90
37974;DHT22;23796;51.458;7.000;2023-07-29T05:31:40;19.60;99.90
37974;DHT22;23796;51.458;7.000;2023-07-29T05:34:06;19.60;99.90
37974;DHT22;23796;51.458;7.000;2023-07-29T05:36:31;19.70;99.90
37974;DHT22;23796;51.458;7.000;2023-07-29T05:38:59;19.70;99.90
37974;DHT22;23796;51.458;7.000;2023-07-29T05:41:25;19.60;99.90
37974;DHT22;23796;51.458;7.000;2023-07-29T05:43:53;19.50;99.90
37974;DHT22;23796;51.458;7.000;2023-07-29T05:46:18;19.50;99.90
37974;DHT22;23796;51.458;7.000;2023-07-29T05:48:44;19.40;99.90
37974;DHT22;23796;51.458;7.000;2023-07-29T05:51:10;19.50;99.90
37974;DHT22;23796;51.458;7.000;2023-07-29T05:53:35;19.50;99.90
37974;DHT22;23796;51.458;7.000;2023-07-29T05:56:01;19.30;99.80
37974;DHT22;23796;51.458;7.000;2023-07-29T05:58:29;19.30;98.60
37974;DHT22;23796;51.458;7.000;2023-07-29T06:00:57;19.20;99.50
37974;DHT22;23796;51.458;7.000;2023-07-29T06:03:25;19.30;98.50
37974;DHT22;23796;51.458;7.000;2023-07-29T06:05:50;19.20;99.40
37974;DHT22;23796;51.458;7.000;2023-07-29T06:08:16;19.40;99.00
37974;DHT22;23796;51.458;7.000;2023-07-29T06:10:41;19.40;98.80
37974;DHT22;23796;51.458;7.000;2023-07-29T06:13:07;19.40;98.20
37974;DHT22;23796;51.458;7.000;2023-07-29T06:15:33;19.40;97.70
37974;DHT22;23796;51.458;7.000;2023-07-29T06:17:59;19.30;97.90
37974;DHT22;23796;51.458;7.000;2023-07-29T06:20:26;19.40;96.80
37974;DHT22;23796;51.458;7.000;2023-07-29T06:22:54;19.30;96.50
37974;DHT22;23796;51.458;7.000;2023-07-29T06:25:22;19.30;95.60
37974;DHT22;23796;51.458;7.000;2023-07-29T06:27:48;19.40;96.30
37974;DHT22;23796;51.458;7.000;2023-07-29T06:30:13;19.40;95.50
37974;DHT22;23796;51.458;7.000;2023-07-29T06:32:41;19.50;95.40
37974;DHT22;23796;51.458;7.000;2023-07-29T06:35:07;19.30;94.70
37974;DHT22;23796;51.458;7.000;2023-07-29T06:37:35;19.40;94.70
37974;DHT22;23796;51.458;7.000;2023-07-29T06:40:00;19.40;94.30
37974;DHT22;23796;51.458;7.000;2023-07-29T06:42:26;19.30;94.60
37974;DHT22;23796;51.458;7.000;2023-07-29T06:44:54;19.50;94.40
37974;DHT22;23796;51.458;7.000;2023-07-29T06:47:19;19.60;93.60
37974;DHT22;23796;51.458;7.000;2023-07-29T06:49:46;19.60;93.20
37974;DHT22;23796;51.458;7.000;2023-07-29T06:52:13;19.60;92.90
37974;DHT22;23796;51.458;7.000;2023-07-29T06:54:39;19.70;92.50
37974;DHT22;23796;51.458;7.000;2023-07-29T06:57:05;19.60;92.30
37974;DHT22;23796;51.458;7.000;2023-07-29T06:59:30;19.50;92.00
37974;DHT22;23796;51.458;7.000;2023-07-29T07:01:58;19.40;91.60
37974;DHT22;23796;51.458;7.000;2023-07-29T07:04:27;19.30;92.60
37974;DHT22;23796;51.458;7.000;2023-07-29T07:06:53;19.50;92.40
37974;DHT22;23796;51.458;7.000;2023-07-29T07:09:19;19.40;91.80
37974;DHT22;23796;51.458;7.000;2023-07-29T07:11:45;19.30;92.30
37974;DHT22;23796;51.458;7.000;2023-07-29T07:14:10;19.20;92.50
37974;DHT22;23796;51.458;7.000;2023-07-29T07:16:36;19.20;92.80
37974;DHT22;23796;51.458;7.000;2023-07-29T07:19:02;19.30;92.60
37974;DHT22;23796;51.458;7.000;2023-07-29T07:21:30;19.20;92.50
37974;DHT22;23796;51.458;7.000;2023-07-29T07:23:58;19.30;92.90
37974;DHT22;23796;51.458;7.000;2023-07-29T07:26:26;19.40;92.70
37974;DHT22;23796;51.458;7.000;2023-07-29T07:28:52;19.50;92.30
37974;DHT22;23796;51.458;7.000;2023-07-29T07:31:18;19.70;91.90
37974;DHT22;23796;51.458;7.000;2023-07-29T07:33:44;19.80;91.10
37974;DHT22;23796;51.458;7.000;2023-07-29T07:36:09;19.70;89.60
37974;DHT22;23796;51.458;7.000;2023-07-29T07:38:35;19.50;90.40
37974;DHT22;23796;51.458;7.000;2023-07-29T07:41:01;19.40;91.80
37974;DHT22;23796;51.458;7.000;2023-07-29T07:43:26;19.50;91.70
37974;DHT22;23796;51.458;7.000;2023-07-29T07:45:58;19.70;91.50
37974;DHT22;23796;51.458;7.000;2023-07-29T07:48:28;20.00;90.40
37974;DHT22;23796;51.458;7.000;2023-07-29T07:50:54;20.00;88.40
37974;DHT22;23796;51.458;7.000;2023-07-29T07:53:20;20.00;88.90
37974;DHT22;23796;51.458;7.000;2023-07-29T07:55:46;20.00;88.80
37974;DHT22;23796;51.458;7.000;2023-07-29T07:58:12;20.10;88.10
37974;DHT22;23796;51.458;7.000;2023-07-29T08:00:37;20.30;86.30
37974;DHT22;23796;51.458;7.000;2023-07-29T08:03:03;20.30;86.50
37974;DHT22;23796;51.458;7.000;2023-07-29T08:05:29;20.30;85.10
37974;DHT22;23796;51.458;7.000;2023-07-29T08:07:55;20.30;85.70
37974;DHT22;23796;51.458;7.000;2023-07-29T08:10:21;20.30;85.70
37974;DHT22;23796;51.458;7.000;2023-07-29T08:12:46;20.10;85.80
37974;DHT22;23796;51.458;7.000;2023-07-29T08:15:12;20.00;85.60
37974;DHT22;23796;51.458;7.000;2023-07-29T08:17:38;20.00;86.90
37974;DHT22;23796;51.458;7.000;2023-07-29T08:20:03;20.00;86.90
37974;DHT22;23796;51.458;7.000;2023-07-29T08:22:29;19.90;88.00
37974;DHT22;23796;51.458;7.000;2023-07-29T08:24:55;20.20;88.00
37974;DHT22;23796;51.458;7.000;2023-07-29T08:30:42;20.50;87.40
37974;DHT22;23796;51.458;7.000;2023-07-29T08:33:08;20.50;85.80
37974;DHT22;23796;51.458;7.000;2023-07-29T08:35:33;20.30;85.20
37974;DHT22;23796;51.458;7.000;2023-07-29T08:38:02;20.30;84.30
37974;DHT22;23796;51.458;7.000;2023-07-29T08:40:29;20.20;85.70
37974;DHT22;23796;51.458;7.000;2023-07-29T08:42:57;20.20;85.20
37974;DHT22;23796;51.458;7.000;2023-07-29T08:45:24;20.30;85.50
37974;DHT22;23796;51.458;7.000;2023-07-29T08:47:54;20.30;85.30
37974;DHT22;23796;51.458;7.000;2023-07-29T08:50:22;20.20;85.80
37974;DHT22;23796;51.458;7.000;2023-07-29T08:52:50;20.20;85.40
37974;DHT22;23796;51.458;7.000;2023-07-29T08:55:18;20.40;85.80
37974;DHT22;23796;51.458;7.000;2023-07-29T08:57:44;20.60;85.50
37974;DHT22;23796;51.458;7.000;2023-07-29T09:00:10;20.80;85.20
37974;DHT22;23796;51.458;7.000;2023-07-29T09:02:36;20.80;84.20
37974;DHT22;23796;51.458;7.000;2023-07-29T09:05:02;20.90;84.10
37974;DHT22;23796;51.458;7.000;2023-07-29T09:07:31;21.00;83.80
37974;DHT22;23796;51.458;7.000;2023-07-29T09:09:59;21.10;83.20
37974;DHT22;23796;51.458;7.000;2023-07-29T09:12:24;21.20;83.30
37974;DHT22;23796;51.458;7.000;2023-07-29T09:14:53;21.30;83.30
37974;DHT22;23796;51.458;7.000;2023-07-29T09:17:22;21.30;82.60
37974;DHT22;23796;51.458;7.000;2023-07-29T09:19:51;21.20;83.50
37974;DHT22;23796;51.458;7.000;2023-07-29T09:22:22;21.40;83.50
37974;DHT22;23796;51.458;7.000;2023-07-29T09:24:48;21.90;82.50
37974;DHT22;23796;51.458;7.000;2023-07-29T09:27:29;22.20;81.50
37974;DHT22;23796;51.458;7.000;2023-07-29T09:29:57;22.40;80.70
37974;DHT22;23796;51.458;7.000;2023-07-29T09:32:24;22.50;80.60
37974;DHT22;23796;51.458;7.000;2023-07-29T09:34:51;22.80;79.80
37974;DHT22;23796;51.458;7.000;2023-07-29T09:37:23;22.90;79.30
37974;DHT22;23796;51.458;7.000;2023-07-29T09:39:50;23.00;78.60
37974;DHT22;23796;51.458;7.000;2023-07-29T09:42:20;22.80;79.30
37974;DHT22;23796;51.458;7.000;2023-07-29T09:44:48;23.00;78.90
37974;DHT22;23796;51.458;7.000;2023-07-29T09:47:24;23.20;78.70
37974;DHT22;23796;51.458;7.000;2023-07-29T09:49:51;23.30;78.20
37974;DHT22;23796;51.458;7.000;2023-07-29T09:52:20;23.30;78.40
37974;DHT22;23796;51.458;7.000;2023-07-29T09:54:47;23.00;79.00
37974;DHT22;23796;51.458;7.000;2023-07-29T09:57:18;23.30;78.40
37974;DHT22;23796;51.458;7.000;2023-07-29T09:59:54;23.50;78.30
37974;DHT22;23796;51.458;7.000;2023-07-29T10:02:22;23.60;78.10
37974;DHT22;23796;51.458;7.000;2023-07-29T10:04:51;23.70;77.30
37974;DHT22;23796;51.458;7.000;2023-07-29T10:07:18;23.70;77.70
37974;DHT22;23796;51.458;7.000;2023-07-29T10:09:45;23.40;78.40
37974;DHT22;23796;51.458;7.000;2023-07-29T10:12:11;23.10;79.20
37974;DHT22;23796;51.458;7.000;2023-07-29T10:14:40;22.80;80.00
37974;DHT22;23796;51.458;7.000;2023-07-29T10:17:06;22.70;80.60
37974;DHT22;23796;51.458;7.000;2023-07-29T10:19:34;22.70;81.20
37974;DHT22;23796;51.458;7.000;2023-07-29T10:22:03;23.00;80.10
37974;DHT22;23796;51.458;7.000;2023-07-29T10:24:32;23.50;78.80
37974;DHT22;23796;51.458;7.000;2023-07-29T10:27:00;23.90;77.90
37974;DHT22;23796;51.458;7.000;2023-07-29T10:29:38;23.90;76.90
37974;DHT22;23796;51.458;7.000;2023-07-29T10:32:04;23.90;77.20
37974;DHT22;23796;51.458;7.000;2023-07-29T10:34:32;24.10;77.10
37974;DHT22;23796;51.458;7.000;2023-07-29T10:36:58;24.30;76.60
37974;DHT22;23796;51.458;7.000;2023-07-29T10:39:25;24.10;75.50
37974;DHT22;23796;51.458;7.000;2023-07-29T10:42:01;24.10;76.50
37974;DHT22;23796;51.458;7.000;2023-07-29T10:47:23;24.10;75.00
37974;DHT22;23796;51.458;7.000;2023-07-29T10:49:57;24.00;76.00
37974;DHT22;23796;51.458;7.000;2023-07-29T10:55:02;23.80;77.00
37974;DHT22;23796;51.458;7.000;2023-07-29T10:57:39;24.00;76.20
37974;DHT22;23796;51.458;7.000;2023-07-29T11:00:07;24.30;75.80
37974;DHT22;23796;51.458;7.000;2023-07-29T11:02:37;24.70;75.20
37974;DHT22;23796;51.458;7.000;2023-07-29T11:05:17;25.20;74.50
37974;DHT22;23796;51.458;7.000;2023-07-29T11:07:47;25.20;73.50
37974;DHT22;23796;51.458;7.000;2023-07-29T11:10:14;25.10;73.30
37974;DHT22;23796;51.458;7.000;2023-07-29T11:12:53;25.20;73.10
37974;DHT22;23796;51.458;7.000;2023-07-29T11:17:59;24.90;73.50
37974;DHT22;23796;51.458;7.000;2023-07-29T11:20:27;25.00;73.70
37974;DHT22;23796;51.458;7.000;2023-07-29T11:22:54;25.20;72.80
37974;DHT22;23796;51.458;7.000;2023-07-29T11:25:21;25.10;72.80
37974;DHT22;23796;51.458;7.000;2023-07-29T11:27:47;25.10;72.60
37974;DHT22;23796;51.458;7.000;2023-07-29T11:30:14;25.20;72.70
37974;DHT22;23796;51.458;7.000;2023-07-29T11:32:42;25.20;72.00
37974;DHT22;23796;51.458;7.000;2023-07-29T11:35:10;25.20;72.20
37974;DHT22;23796;51.458;7.000;2023-07-29T11:37:37;25.10;72.10
37974;DHT22;23796;51.458;7.000;2023-07-29T11:40:03;24.90;72.40
37974;DHT22;23796;51.458;7.000;2023-07-29T11:42:33;24.80;73.20
37974;DHT22;23796;51.458;7.000;2023-07-29T11:45:03;25.10;72.70
37974;DHT22;23796;51.458;7.000;2023-07-29T11:47:32;25.30;70.70
37974;DHT22;23796;51.458;7.000;2023-07-29T11:50:02;25.10;71.10
37974;DHT22;23796;51.458;7.000;2023-07-29T11:52:27;24.90;71.90
37974;DHT22;23796;51.458;7.000;2023-07-29T11:54:56;25.00;72.60
37974;DHT22;23796;51.458;7.000;2023-07-29T11:57:23;25.20;72.60
37974;DHT22;23796;51.458;7.000;2023-07-29T11:59:49;25.40;72.40
37974;DHT22;23796;51.458;7.000;2023-07-29T12:02:19;25.40;72.10
37974;DHT22;23796;51.458;7.000;2023-07-29T12:04:47;25.40;72.20
37974;DHT22;23796;51.458;7.000;2023-07-29T12:07:17;25.20;72.20
37974;DHT22;23796;51.458;7.000;2023-07-29T12:09:43;25.30;71.10
37974;DHT22;23796;51.458;7.000;2023-07-29T12:12:10;25.40;71.30
37974;DHT22;23796;51.458;7.000;2023-07-29T12:14:35;25.40;70.20
37974;DHT22;23796;51.458;7.000;2023-07-29T12:17:02;25.50;70.90
37974;DHT22;23796;51.458;7.000;2023-07-29T12:19:33;25.80;69.00
37974;DHT22;23796;51.458;7.000;2023-07-29T12:22:02;25.60;69.50
37974;DHT22;23796;51.458;7.000;2023-07-29T12:24:33;25.60;70.20
37974;DHT22;23796;51.458;7.000;2023-07-29T12:26:59;25.60;70.50
37974;DHT22;23796;51.458;7.000;2023-07-29T12:29:25;25.70;69.80
37974;DHT22;23796;51.458;7.000;2023-07-29T12:32:01;26.00;69.60
37974;DHT22;23796;51.458;7.000;2023-07-29T12:34:30;26.20;68.70
37974;DHT22;23796;51.458;7.000;2023-07-29T12:36:58;26.40;68.70
37974;DHT22;23796;51.458;7.000;2023-07-29T12:39:25;26.50;68.30
37974;DHT22;23796;51.458;7.000;2023-07-29T12:41:53;26.40;68.70
37974;DHT22;23796;51.458;7.000;2023-07-29T12:44:26;26.30;68.80
37974;DHT22;23796;51.458;7.000;2023-07-29T12:46:52;26.20;68.90
37974;DHT22;23796;51.458;7.000;2023-07-29T12:49:18;26.20;68.30
37974;DHT22;23796;51.458;7.000;2023-07-29T12:51:44;26.40;68.10
37974;DHT22;23796;51.458;7.000;2023-07-29T12:54:10;26.50;68.70
37974;DHT22;23796;51.458;7.000;2023-07-29T12:56:36;26.40;68.30
37974;DHT22;23796;51.458;7.000;2023-07-29T12:59:01;26.70;68.10
37974;DHT22;23796;51.458;7.000;2023-07-29T13:01:28;26.80;67.40
37974;DHT22;23796;51.458;7.000;2023-07-29T13:03:54;26.30;67.80
37974;DHT22;23796;51.458;7.000;2023-07-29T13:06:20;26.30;68.00
37974;DHT22;23796;51.458;7.000;2023-07-29T13:08:47;26.40;68.10
37974;DHT22;23796;51.458;7.000;2023-07-29T13:11:14;26.40;68.40
37974;DHT22;23796;51.458;7.000;2023-07-29T13:13:39;26.40;68.50
37974;DHT22;23796;51.458;7.000;2023-07-29T13:16:08;26.30;68.00
37974;DHT22;23796;51.458;7.000;2023-07-29T13:18:34;26.10;68.90
37974;DHT22;23796;51.458;7.000;2023-07-29T13:20:59;26.50;68.50
37974;DHT22;23796;51.458;7.000;2023-07-29T13:23:28;26.50;67.80
37974;DHT22;23796;51.458;7.000;2023-07-29T13:25:55;26.60;67.50
37974;DHT22;23796;51.458;7.000;2023-07-29T13:28:21;26.00;68.60
37974;DHT22;23796;51.458;7.000;2023-07-29T13:30:46;25.70;69.10
37974;DHT22;23796;51.458;7.000;2023-07-29T13:33:12;25.60;69.20
37974;DHT22;23796;51.458;7.000;2023-07-29T13:35:42;25.60;69.60
37974;DHT22;23796;51.458;7.000;2023-07-29T13:38:08;25.80;69.00
37974;DHT22;23796;51.458;7.000;2023-07-29T13:40:36;25.70;68.90
37974;DHT22;23796;51.458;7.000;2023-07-29T13:43:02;25.40;70.10
37974;DHT22;23796;51.458;7.000;2023-07-29T13:45:27;25.10;70.40
37974;DHT22;23796;51.458;7.000;2023-07-29T13:47:53;24.90;71.00
37974;DHT22;23796;51.458;7.000;2023-07-29T13:50:18;24.80;71.60
37974;DHT22;23796;51.458;7.000;2023-07-29T13:52:44;24.80;71.30
37974;DHT22;23796;51.458;7.000;2023-07-29T13:55:12;24.70;72.20
37974;DHT22;23796;51.458;7.000;2023-07-29T13:57:38;24.70;72.70
37974;DHT22;23796;51.458;7.000;2023-07-29T14:00:08;24.60;73.60
37974;DHT22;23796;51.458;7.000;2023-07-29T14:02:34;24.40;74.40
37974;DHT22;23796;51.458;7.000;2023-07-29T14:04:59;24.10;76.40
37974;DHT22;23796;51.458;7.000;2023-07-29T14:07:25;24.00;77.10
37974;DHT22;23796;51.458;7.000;2023-07-29T14:09:50;23.80;80.90
37974;DHT22;23796;51.458;7.000;2023-07-29T14:12:16;23.00;84.30
37974;DHT22;23796;51.458;7.000;2023-07-29T14:14:42;22.10;86.40
37974;DHT22;23796;51.458;7.000;2023-07-29T14:17:08;21.80;89.30
37974;DHT22;23796;51.458;7.000;2023-07-29T14:19:39;21.50;90.30
37974;DHT22;23796;51.458;7.000;2023-07-29T14:22:05;21.00;91.50
37974;DHT22;23796;51.458;7.000;2023-07-29T14:24:33;20.80;94.30
37974;DHT22;23796;51.458;7.000;2023-07-29T14:26:58;20.00;90.50
37974;DHT22;23796;51.458;7.000;2023-07-29T14:29:26;19.40;93.60
37974;DHT22;23796;51.458;7.000;2023-07-29T14:31:54;19.30;93.90
37974;DHT22;23796;51.458;7.000;2023-07-29T14:34:20;19.50;93.30
37974;DHT22;23796;51.458;7.000;2023-07-29T14:36:45;20.10;92.90
37974;DHT22;23796;51.458;7.000;2023-07-29T14:39:11;20.80;93.00
37974;DHT22;23796;51.458;7.000;2023-07-29T14:41:36;21.30;91.80
37974;DHT22;23796;51.458;7.000;2023-07-29T14:44:02;21.10;90.70
37974;DHT22;23796;51.458;7.000;2023-07-29T14:46:28;21.00;91.90
37974;DHT22;23796;51.458;7.000;2023-07-29T14:48:53;20.70;91.90
37974;DHT22;23796;51.458;7.000;2023-07-29T14:51:19;20.90;92.00
37974;DHT22;23796;51.458;7.000;2023-07-29T14:53:45;21.00;90.80
37974;DHT22;23796;51.458;7.000;2023-07-29T14:56:10;21.00;90.30
37974;DHT22;23796;51.458;7.000;2023-07-29T14:58:36;20.80;91.50
37974;DHT22;23796;51.458;7.000;2023-07-29T15:01:06;20.70;93.00
37974;DHT22;23796;51.458;7.000;2023-07-29T15:03:34;20.90;93.50
37974;DHT22;23796;51.458;7.000;2023-07-29T15:05:59;21.00;93.10
37974;DHT22;23796;51.458;7.000;2023-07-29T15:08:26;21.00;93.80
37974;DHT22;23796;51.458;7.000;2023-07-29T15:10:51;20.80;93.50
37974;DHT22;23796;51.458;7.000;2023-07-29T15:13:17;20.60;94.70
37974;DHT22;23796;51.458;7.000;2023-07-29T15:15:43;20.40;96.80
37974;DHT22;23796;51.458;7.000;2023-07-29T15:18:10;20.50;96.10
37974;DHT22;23796;51.458;7.000;2023-07-29T15:20:37;20.60;96.80
37974;DHT22;23796;51.458;7.000;2023-07-29T15:23:03;20.90;95.20
37974;DHT22;23796;51.458;7.000;2023-07-29T15:25:29;21.00;93.80
37974;DHT22;23796;51.458;7.000;2023-07-29T15:27:54;21.10;92.60
37974;DHT22;23796;51.458;7.000;2023-07-29T15:30:20;21.20;93.10
37974;DHT22;23796;51.458;7.000;2023-07-29T15:32:48;21.20;93.50
37974;DHT22;23796;51.458;7.000;2023-07-29T15:35:24;21.40;93.20
37974;DHT22;23796;51.458;7.000;2023-07-29T15:37:50;21.70;92.10
37974;DHT22;23796;51.458;7.000;2023-07-29T15:40:15;22.00;92.40
37974;DHT22;23796;51.458;7.000;2023-07-29T15:42:42;22.40;92.00
37974;DHT22;23796;51.458;7.000;2023-07-29T15:45:08;22.60;91.00
37974;DHT22;23796;51.458;7.000;2023-07-29T15:47:34;22.70;91.20